Pogibi, Russia
Current Conditions -  °F | °C
As of 4:00 PM on Wednesday 26 Nov 2014 (Local Time) from UHSS Reporting Station
Clear Clear  
Wind Chill: 35°   Ceiling: Unl
Heat Index: 41°   Visibility: 6mi
Dew Point: 28°   Wind: 9mph
Humidity: 61%   Direction: 170°S
Pressure: 30.15"   Gusts: NA
Location:  52.22°N, 141.66°E
Report Text: UHSS 260500Z 17004MPS 9999 SKC 05/M02 Q1021 NOSIG RMKQFE764/1019 19CLRD65
Loading
Personal Weather Stations






























Interactive Weather Map New forecast layout! Learn more

10-Day Weather Forecast

Advertisements
Track Severe Weather on mobile